sensor_id;sensor_type;location;lat;lon;timestamp;P1;durP1;ratioP1;P2;durP2;ratioP2
9465;SDS011;4771;48.726;9.006;2022-12-11T00:02:02;16.93;;;12.17;;
9465;SDS011;4771;48.726;9.006;2022-12-11T00:04:29;17.77;;;12.40;;
9465;SDS011;4771;48.726;9.006;2022-12-11T00:06:56;18.90;;;12.23;;
9465;SDS011;4771;48.726;9.006;2022-12-11T00:09:23;15.77;;;11.10;;
9465;SDS011;4771;48.726;9.006;2022-12-11T00:11:51;18.77;;;10.97;;
9465;SDS011;4771;48.726;9.006;2022-12-11T00:14:18;18.03;;;12.10;;
9465;SDS011;4771;48.726;9.006;2022-12-11T00:16:46;18.97;;;12.23;;
9465;SDS011;4771;48.726;9.006;2022-12-11T00:19:14;18.27;;;11.97;;
9465;SDS011;4771;48.726;9.006;2022-12-11T00:21:40;17.40;;;11.83;;
9465;SDS011;4771;48.726;9.006;2022-12-11T00:24:07;20.13;;;11.37;;
9465;SDS011;4771;48.726;9.006;2022-12-11T00:26:34;19.20;;;11.73;;
9465;SDS011;4771;48.726;9.006;2022-12-11T00:29:03;17.83;;;12.03;;
9465;SDS011;4771;48.726;9.006;2022-12-11T00:31:29;19.43;;;11.73;;
9465;SDS011;4771;48.726;9.006;2022-12-11T00:33:56;18.17;;;12.33;;
9465;SDS011;4771;48.726;9.006;2022-12-11T00:36:24;22.30;;;13.60;;
9465;SDS011;4771;48.726;9.006;2022-12-11T00:38:52;18.97;;;12.37;;
9465;SDS011;4771;48.726;9.006;2022-12-11T00:41:19;19.73;;;12.83;;
9465;SDS011;4771;48.726;9.006;2022-12-11T00:43:47;20.43;;;13.77;;
9465;SDS011;4771;48.726;9.006;2022-12-11T00:46:15;19.90;;;13.20;;
9465;SDS011;4771;48.726;9.006;2022-12-11T00:48:42;20.03;;;13.07;;
9465;SDS011;4771;48.726;9.006;2022-12-11T00:51:10;19.70;;;13.07;;
9465;SDS011;4771;48.726;9.006;2022-12-11T00:53:37;20.23;;;13.03;;
9465;SDS011;4771;48.726;9.006;2022-12-11T00:56:08;20.40;;;13.20;;
9465;SDS011;4771;48.726;9.006;2022-12-11T00:58:36;17.87;;;12.40;;
9465;SDS011;4771;48.726;9.006;2022-12-11T01:01:06;18.67;;;12.97;;
9465;SDS011;4771;48.726;9.006;2022-12-11T01:03:36;20.17;;;13.40;;
9465;SDS011;4771;48.726;9.006;2022-12-11T01:06:04;22.03;;;13.60;;
9465;SDS011;4771;48.726;9.006;2022-12-11T01:08:31;17.33;;;11.77;;
9465;SDS011;4771;48.726;9.006;2022-12-11T01:11:00;18.63;;;12.43;;
9465;SDS011;4771;48.726;9.006;2022-12-11T01:13:26;20.40;;;13.17;;
9465;SDS011;4771;48.726;9.006;2022-12-11T01:15:53;19.47;;;13.10;;
9465;SDS011;4771;48.726;9.006;2022-12-11T01:18:20;19.37;;;13.10;;
9465;SDS011;4771;48.726;9.006;2022-12-11T01:20:48;21.63;;;13.13;;
9465;SDS011;4771;48.726;9.006;2022-12-11T01:23:15;21.43;;;13.13;;
9465;SDS011;4771;48.726;9.006;2022-12-11T01:25:42;21.03;;;13.23;;
9465;SDS011;4771;48.726;9.006;2022-12-11T01:28:09;20.33;;;13.67;;
9465;SDS011;4771;48.726;9.006;2022-12-11T01:30:37;21.93;;;13.23;;
9465;SDS011;4771;48.726;9.006;2022-12-11T01:33:06;19.97;;;12.67;;
9465;SDS011;4771;48.726;9.006;2022-12-11T01:35:33;23.57;;;13.57;;
9465;SDS011;4771;48.726;9.006;2022-12-11T01:38:01;21.20;;;12.93;;
9465;SDS011;4771;48.726;9.006;2022-12-11T01:40:28;18.87;;;12.77;;
9465;SDS011;4771;48.726;9.006;2022-12-11T01:42:55;20.07;;;13.67;;
9465;SDS011;4771;48.726;9.006;2022-12-11T01:45:25;20.40;;;13.77;;
9465;SDS011;4771;48.726;9.006;2022-12-11T01:48:05;23.97;;;15.17;;
9465;SDS011;4771;48.726;9.006;2022-12-11T01:50:37;25.50;;;15.97;;
9465;SDS011;4771;48.726;9.006;2022-12-11T01:53:11;27.13;;;16.80;;
9465;SDS011;4771;48.726;9.006;2022-12-11T01:55:40;24.00;;;15.73;;
9465;SDS011;4771;48.726;9.006;2022-12-11T01:58:07;25.27;;;15.50;;
9465;SDS011;4771;48.726;9.006;2022-12-11T02:00:36;24.63;;;15.63;;
9465;SDS011;4771;48.726;9.006;2022-12-11T02:03:03;23.27;;;15.30;;
9465;SDS011;4771;48.726;9.006;2022-12-11T02:05:30;21.90;;;14.53;;
9465;SDS011;4771;48.726;9.006;2022-12-11T02:07:57;20.97;;;13.83;;
9465;SDS011;4771;48.726;9.006;2022-12-11T02:10:30;19.63;;;13.27;;
9465;SDS011;4771;48.726;9.006;2022-12-11T02:13:06;20.00;;;13.97;;
9465;SDS011;4771;48.726;9.006;2022-12-11T02:15:39;19.63;;;13.00;;
9465;SDS011;4771;48.726;9.006;2022-12-11T02:18:13;17.17;;;12.27;;
9465;SDS011;4771;48.726;9.006;2022-12-11T02:20:53;18.83;;;12.63;;
9465;SDS011;4771;48.726;9.006;2022-12-11T02:26:28;18.07;;;11.80;;
9465;SDS011;4771;48.726;9.006;2022-12-11T02:29:12;20.40;;;13.60;;
9465;SDS011;4771;48.726;9.006;2022-12-11T02:31:45;19.70;;;12.97;;
9465;SDS011;4771;48.726;9.006;2022-12-11T02:34:20;19.30;;;12.97;;
9465;SDS011;4771;48.726;9.006;2022-12-11T02:36:53;20.17;;;13.70;;
9465;SDS011;4771;48.726;9.006;2022-12-11T02:39:25;18.63;;;13.10;;
9465;SDS011;4771;48.726;9.006;2022-12-11T02:41:54;22.13;;;13.17;;
9465;SDS011;4771;48.726;9.006;2022-12-11T02:44:23;19.30;;;13.13;;
9465;SDS011;4771;48.726;9.006;2022-12-11T02:46:52;20.60;;;13.40;;
9465;SDS011;4771;48.726;9.006;2022-12-11T02:49:20;18.97;;;12.73;;
9465;SDS011;4771;48.726;9.006;2022-12-11T02:51:49;21.10;;;13.63;;
9465;SDS011;4771;48.726;9.006;2022-12-11T02:54:22;21.17;;;13.70;;
9465;SDS011;4771;48.726;9.006;2022-12-11T02:56:53;18.80;;;13.10;;
9465;SDS011;4771;48.726;9.006;2022-12-11T02:59:28;18.27;;;12.93;;
9465;SDS011;4771;48.726;9.006;2022-12-11T03:01:59;19.97;;;13.00;;
9465;SDS011;4771;48.726;9.006;2022-12-11T03:04:27;18.20;;;12.43;;
9465;SDS011;4771;48.726;9.006;2022-12-11T03:06:55;17.13;;;12.17;;
9465;SDS011;4771;48.726;9.006;2022-12-11T03:09:27;18.93;;;12.37;;
9465;SDS011;4771;48.726;9.006;2022-12-11T03:11:54;17.13;;;12.17;;
9465;SDS011;4771;48.726;9.006;2022-12-11T03:14:21;17.23;;;12.27;;
9465;SDS011;4771;48.726;9.006;2022-12-11T03:16:50;17.10;;;11.10;;
9465;SDS011;4771;48.726;9.006;2022-12-11T03:19:27;14.50;;;10.63;;
9465;SDS011;4771;48.726;9.006;2022-12-11T03:22:01;15.80;;;10.80;;
9465;SDS011;4771;48.726;9.006;2022-12-11T03:24:36;15.83;;;10.50;;
9465;SDS011;4771;48.726;9.006;2022-12-11T03:27:07;12.97;;;9.83;;
9465;SDS011;4771;48.726;9.006;2022-12-11T03:29:42;15.50;;;11.00;;
9465;SDS011;4771;48.726;9.006;2022-12-11T03:32:18;15.83;;;10.43;;
9465;SDS011;4771;48.726;9.006;2022-12-11T03:34:49;14.03;;;10.07;;
9465;SDS011;4771;48.726;9.006;2022-12-11T03:37:19;14.30;;;10.13;;
9465;SDS011;4771;48.726;9.006;2022-12-11T03:39:48;14.47;;;11.03;;
9465;SDS011;4771;48.726;9.006;2022-12-11T03:42:19;15.43;;;10.20;;
9465;SDS011;4771;48.726;9.006;2022-12-11T03:44:48;15.97;;;10.57;;
9465;SDS011;4771;48.726;9.006;2022-12-11T03:47:18;15.70;;;10.53;;
9465;SDS011;4771;48.726;9.006;2022-12-11T03:49:49;17.40;;;11.77;;
9465;SDS011;4771;48.726;9.006;2022-12-11T03:52:17;14.80;;;10.67;;
9465;SDS011;4771;48.726;9.006;2022-12-11T03:54:46;15.50;;;10.27;;
9465;SDS011;4771;48.726;9.006;2022-12-11T03:57:17;13.50;;;10.27;;
9465;SDS011;4771;48.726;9.006;2022-12-11T03:59:47;15.43;;;11.23;;
9465;SDS011;4771;48.726;9.006;2022-12-11T04:02:14;15.50;;;11.30;;
9465;SDS011;4771;48.726;9.006;2022-12-11T04:04:43;15.83;;;10.33;;
9465;SDS011;4771;48.726;9.006;2022-12-11T04:07:10;15.10;;;11.03;;
9465;SDS011;4771;48.726;9.006;2022-12-11T04:09:37;15.40;;;10.83;;
9465;SDS011;4771;48.726;9.006;2022-12-11T04:12:04;13.80;;;10.20;;
9465;SDS011;4771;48.726;9.006;2022-12-11T04:14:31;13.17;;;10.37;;
9465;SDS011;4771;48.726;9.006;2022-12-11T04:17:15;13.20;;;9.93;;
9465;SDS011;4771;48.726;9.006;2022-12-11T04:20:04;15.10;;;9.63;;
9465;SDS011;4771;48.726;9.006;2022-12-11T04:22:49;14.67;;;9.90;;
9465;SDS011;4771;48.726;9.006;2022-12-11T04:25:33;13.57;;;9.73;;
9465;SDS011;4771;48.726;9.006;2022-12-11T04:28:00;12.53;;;9.50;;
9465;SDS011;4771;48.726;9.006;2022-12-11T04:30:27;14.63;;;10.47;;
9465;SDS011;4771;48.726;9.006;2022-12-11T04:32:54;14.10;;;9.20;;
9465;SDS011;4771;48.726;9.006;2022-12-11T04:35:22;13.33;;;9.77;;
9465;SDS011;4771;48.726;9.006;2022-12-11T04:37:50;12.80;;;9.23;;
9465;SDS011;4771;48.726;9.006;2022-12-11T04:40:18;12.20;;;9.07;;
9465;SDS011;4771;48.726;9.006;2022-12-11T04:42:45;13.83;;;9.67;;
9465;SDS011;4771;48.726;9.006;2022-12-11T04:45:12;13.63;;;9.70;;
9465;SDS011;4771;48.726;9.006;2022-12-11T04:47:39;11.87;;;8.63;;
9465;SDS011;4771;48.726;9.006;2022-12-11T04:50:08;12.57;;;9.17;;
9465;SDS011;4771;48.726;9.006;2022-12-11T04:52:38;14.43;;;9.90;;
9465;SDS011;4771;48.726;9.006;2022-12-11T04:55:06;12.20;;;9.27;;
9465;SDS011;4771;48.726;9.006;2022-12-11T04:57:33;14.63;;;9.73;;
9465;SDS011;4771;48.726;9.006;2022-12-11T05:00:00;16.13;;;10.60;;
9465;SDS011;4771;48.726;9.006;2022-12-11T05:02:28;12.73;;;10.00;;
9465;SDS011;4771;48.726;9.006;2022-12-11T05:04:55;15.07;;;10.20;;
9465;SDS011;4771;48.726;9.006;2022-12-11T05:07:22;15.50;;;10.70;;
9465;SDS011;4771;48.726;9.006;2022-12-11T05:09:50;15.03;;;10.13;;
9465;SDS011;4771;48.726;9.006;2022-12-11T05:12:17;12.70;;;9.50;;
9465;SDS011;4771;48.726;9.006;2022-12-11T05:14:44;13.27;;;9.20;;
9465;SDS011;4771;48.726;9.006;2022-12-11T05:17:11;16.93;;;10.23;;
9465;SDS011;4771;48.726;9.006;2022-12-11T05:19:38;15.10;;;10.20;;
9465;SDS011;4771;48.726;9.006;2022-12-11T05:22:05;16.40;;;9.47;;
9465;SDS011;4771;48.726;9.006;2022-12-11T05:24:32;13.30;;;9.03;;
9465;SDS011;4771;48.726;9.006;2022-12-11T05:27:00;15.13;;;9.60;;
9465;SDS011;4771;48.726;9.006;2022-12-11T05:29:27;13.40;;;9.53;;
9465;SDS011;4771;48.726;9.006;2022-12-11T05:31:54;13.90;;;9.40;;
9465;SDS011;4771;48.726;9.006;2022-12-11T05:34:20;13.97;;;9.53;;
9465;SDS011;4771;48.726;9.006;2022-12-11T05:36:47;13.87;;;9.70;;
9465;SDS011;4771;48.726;9.006;2022-12-11T05:39:14;13.83;;;9.40;;
9465;SDS011;4771;48.726;9.006;2022-12-11T05:41:41;15.00;;;10.47;;
9465;SDS011;4771;48.726;9.006;2022-12-11T05:44:10;11.63;;;8.93;;
9465;SDS011;4771;48.726;9.006;2022-12-11T05:46:38;13.37;;;9.77;;
9465;SDS011;4771;48.726;9.006;2022-12-11T05:49:05;14.73;;;9.20;;
9465;SDS011;4771;48.726;9.006;2022-12-11T05:51:32;13.07;;;9.30;;
9465;SDS011;4771;48.726;9.006;2022-12-11T05:54:00;14.83;;;10.20;;
9465;SDS011;4771;48.726;9.006;2022-12-11T05:56:28;14.30;;;10.03;;
9465;SDS011;4771;48.726;9.006;2022-12-11T05:58:57;13.20;;;9.57;;
9465;SDS011;4771;48.726;9.006;2022-12-11T06:01:28;14.40;;;10.20;;
9465;SDS011;4771;48.726;9.006;2022-12-11T06:03:56;15.70;;;9.93;;
9465;SDS011;4771;48.726;9.006;2022-12-11T06:06:24;17.47;;;10.17;;
9465;SDS011;4771;48.726;9.006;2022-12-11T06:08:51;15.03;;;9.97;;
9465;SDS011;4771;48.726;9.006;2022-12-11T06:11:20;17.07;;;10.60;;
9465;SDS011;4771;48.726;9.006;2022-12-11T06:13:48;15.03;;;10.33;;
9465;SDS011;4771;48.726;9.006;2022-12-11T06:16:15;14.70;;;10.13;;
9465;SDS011;4771;48.726;9.006;2022-12-11T06:18:43;15.43;;;10.20;;
9465;SDS011;4771;48.726;9.006;2022-12-11T06:21:11;15.57;;;9.57;;
9465;SDS011;4771;48.726;9.006;2022-12-11T06:23:39;14.50;;;9.43;;
9465;SDS011;4771;48.726;9.006;2022-12-11T06:26:06;14.33;;;9.87;;
9465;SDS011;4771;48.726;9.006;2022-12-11T06:28:33;13.17;;;9.87;;
9465;SDS011;4771;48.726;9.006;2022-12-11T06:31:00;14.20;;;9.47;;
9465;SDS011;4771;48.726;9.006;2022-12-11T06:33:28;15.10;;;10.63;;
9465;SDS011;4771;48.726;9.006;2022-12-11T06:35:56;16.00;;;10.10;;
9465;SDS011;4771;48.726;9.006;2022-12-11T06:38:27;13.67;;;9.37;;
9465;SDS011;4771;48.726;9.006;2022-12-11T06:40:54;14.60;;;10.53;;
9465;SDS011;4771;48.726;9.006;2022-12-11T06:43:21;13.63;;;9.83;;
9465;SDS011;4771;48.726;9.006;2022-12-11T06:45:48;13.00;;;9.47;;
9465;SDS011;4771;48.726;9.006;2022-12-11T06:48:16;15.10;;;10.00;;
9465;SDS011;4771;48.726;9.006;2022-12-11T06:50:43;13.23;;;9.87;;
9465;SDS011;4771;48.726;9.006;2022-12-11T06:53:12;14.13;;;10.00;;
9465;SDS011;4771;48.726;9.006;2022-12-11T06:55:40;47.23;;;26.00;;
9465;SDS011;4771;48.726;9.006;2022-12-11T06:58:07;42.53;;;22.90;;
9465;SDS011;4771;48.726;9.006;2022-12-11T07:00:35;19.57;;;12.00;;
9465;SDS011;4771;48.726;9.006;2022-12-11T07:03:02;18.03;;;10.97;;
9465;SDS011;4771;48.726;9.006;2022-12-11T07:05:30;16.50;;;11.13;;
9465;SDS011;4771;48.726;9.006;2022-12-11T07:07:57;19.43;;;10.90;;
9465;SDS011;4771;48.726;9.006;2022-12-11T07:10:26;16.30;;;10.60;;
9465;SDS011;4771;48.726;9.006;2022-12-11T07:12:53;17.00;;;11.10;;
9465;SDS011;4771;48.726;9.006;2022-12-11T07:15:20;15.50;;;10.63;;
9465;SDS011;4771;48.726;9.006;2022-12-11T07:17:47;17.87;;;10.93;;
9465;SDS011;4771;48.726;9.006;2022-12-11T07:20:14;15.67;;;10.90;;
9465;SDS011;4771;48.726;9.006;2022-12-11T07:22:41;18.37;;;11.53;;
9465;SDS011;4771;48.726;9.006;2022-12-11T07:25:08;16.90;;;10.73;;
9465;SDS011;4771;48.726;9.006;2022-12-11T07:27:36;17.77;;;11.87;;
9465;SDS011;4771;48.726;9.006;2022-12-11T07:30:03;15.80;;;10.67;;
9465;SDS011;4771;48.726;9.006;2022-12-11T07:32:31;16.83;;;11.50;;
9465;SDS011;4771;48.726;9.006;2022-12-11T07:34:58;17.10;;;11.87;;
9465;SDS011;4771;48.726;9.006;2022-12-11T07:37:25;16.67;;;10.90;;
9465;SDS011;4771;48.726;9.006;2022-12-11T07:39:52;15.57;;;10.43;;
9465;SDS011;4771;48.726;9.006;2022-12-11T07:42:18;18.00;;;10.93;;
9465;SDS011;4771;48.726;9.006;2022-12-11T07:44:47;15.17;;;10.50;;
9465;SDS011;4771;48.726;9.006;2022-12-11T07:47:13;18.60;;;11.17;;
9465;SDS011;4771;48.726;9.006;2022-12-11T07:49:40;19.13;;;11.30;;
9465;SDS011;4771;48.726;9.006;2022-12-11T07:52:07;16.57;;;11.27;;
9465;SDS011;4771;48.726;9.006;2022-12-11T07:54:34;16.13;;;10.40;;
9465;SDS011;4771;48.726;9.006;2022-12-11T07:57:01;17.57;;;11.07;;
9465;SDS011;4771;48.726;9.006;2022-12-11T07:59:28;21.17;;;12.37;;
9465;SDS011;4771;48.726;9.006;2022-12-11T08:01:56;19.07;;;12.07;;
9465;SDS011;4771;48.726;9.006;2022-12-11T08:04:23;19.80;;;12.73;;
9465;SDS011;4771;48.726;9.006;2022-12-11T08:06:50;16.70;;;11.90;;
9465;SDS011;4771;48.726;9.006;2022-12-11T08:09:17;19.33;;;11.63;;
9465;SDS011;4771;48.726;9.006;2022-12-11T08:11:46;17.17;;;10.93;;
9465;SDS011;4771;48.726;9.006;2022-12-11T08:14:14;20.20;;;12.97;;
9465;SDS011;4771;48.726;9.006;2022-12-11T08:16:41;21.97;;;13.40;;
9465;SDS011;4771;48.726;9.006;2022-12-11T08:19:09;18.53;;;12.70;;
9465;SDS011;4771;48.726;9.006;2022-12-11T08:21:36;20.03;;;12.73;;
9465;SDS011;4771;48.726;9.006;2022-12-11T08:24:04;19.73;;;13.43;;
9465;SDS011;4771;48.726;9.006;2022-12-11T08:26:31;19.87;;;13.37;;
9465;SDS011;4771;48.726;9.006;2022-12-11T08:28:59;21.23;;;13.07;;
9465;SDS011;4771;48.726;9.006;2022-12-11T08:31:27;16.37;;;12.17;;
9465;SDS011;4771;48.726;9.006;2022-12-11T08:33:54;21.00;;;13.27;;
9465;SDS011;4771;48.726;9.006;2022-12-11T08:36:23;21.23;;;13.57;;
9465;SDS011;4771;48.726;9.006;2022-12-11T08:38:51;20.50;;;13.53;;
9465;SDS011;4771;48.726;9.006;2022-12-11T08:41:20;17.97;;;12.70;;
9465;SDS011;4771;48.726;9.006;2022-12-11T08:43:49;20.37;;;13.10;;
9465;SDS011;4771;48.726;9.006;2022-12-11T08:46:19;20.40;;;12.50;;
9465;SDS011;4771;48.726;9.006;2022-12-11T08:48:47;23.73;;;14.57;;
9465;SDS011;4771;48.726;9.006;2022-12-11T08:51:16;18.63;;;12.87;;
9465;SDS011;4771;48.726;9.006;2022-12-11T08:53:46;16.57;;;12.37;;
9465;SDS011;4771;48.726;9.006;2022-12-11T08:56:16;16.57;;;10.87;;
9465;SDS011;4771;48.726;9.006;2022-12-11T08:58:45;19.20;;;11.70;;
9465;SDS011;4771;48.726;9.006;2022-12-11T09:01:15;16.50;;;11.30;;
9465;SDS011;4771;48.726;9.006;2022-12-11T09:03:45;17.60;;;12.10;;
9465;SDS011;4771;48.726;9.006;2022-12-11T09:06:13;17.97;;;11.27;;
9465;SDS011;4771;48.726;9.006;2022-12-11T09:08:41;14.73;;;10.57;;
9465;SDS011;4771;48.726;9.006;2022-12-11T09:11:12;14.50;;;10.07;;
9465;SDS011;4771;48.726;9.006;2022-12-11T09:13:40;18.13;;;10.77;;
9465;SDS011;4771;48.726;9.006;2022-12-11T09:16:08;16.20;;;11.10;;
9465;SDS011;4771;48.726;9.006;2022-12-11T09:18:37;16.47;;;10.80;;
9465;SDS011;4771;48.726;9.006;2022-12-11T09:21:05;16.30;;;10.10;;
9465;SDS011;4771;48.726;9.006;2022-12-11T09:23:33;14.27;;;10.80;;
9465;SDS011;4771;48.726;9.006;2022-12-11T09:26:02;16.07;;;10.27;;
9465;SDS011;4771;48.726;9.006;2022-12-11T09:28:34;19.43;;;11.37;;
9465;SDS011;4771;48.726;9.006;2022-12-11T09:31:01;19.80;;;12.70;;
9465;SDS011;4771;48.726;9.006;2022-12-11T09:33:33;18.57;;;11.90;;
9465;SDS011;4771;48.726;9.006;2022-12-11T09:36:01;19.43;;;11.60;;
9465;SDS011;4771;48.726;9.006;2022-12-11T09:38:29;15.90;;;10.67;;
9465;SDS011;4771;48.726;9.006;2022-12-11T09:40:57;17.57;;;11.83;;
9465;SDS011;4771;48.726;9.006;2022-12-11T09:43:28;16.63;;;10.87;;
9465;SDS011;4771;48.726;9.006;2022-12-11T09:46:03;16.40;;;10.87;;
9465;SDS011;4771;48.726;9.006;2022-12-11T09:48:34;17.20;;;11.80;;
9465;SDS011;4771;48.726;9.006;2022-12-11T09:51:03;15.57;;;10.70;;
9465;SDS011;4771;48.726;9.006;2022-12-11T09:53:36;14.43;;;10.07;;
9465;SDS011;4771;48.726;9.006;2022-12-11T09:56:05;15.80;;;10.37;;
9465;SDS011;4771;48.726;9.006;2022-12-11T09:58:49;16.67;;;10.47;;
9465;SDS011;4771;48.726;9.006;2022-12-11T10:01:27;19.63;;;10.40;;
9465;SDS011;4771;48.726;9.006;2022-12-11T10:04:08;15.07;;;10.73;;
9465;SDS011;4771;48.726;9.006;2022-12-11T10:06:46;15.17;;;10.57;;
9465;SDS011;4771;48.726;9.006;2022-12-11T10:09:28;14.97;;;10.73;;
9465;SDS011;4771;48.726;9.006;2022-12-11T10:12:03;14.57;;;10.33;;
9465;SDS011;4771;48.726;9.006;2022-12-11T10:14:44;15.97;;;10.53;;
9465;SDS011;4771;48.726;9.006;2022-12-11T10:17:22;15.90;;;10.13;;
9465;SDS011;4771;48.726;9.006;2022-12-11T10:19:54;14.87;;;10.00;;
9465;SDS011;4771;48.726;9.006;2022-12-11T10:22:25;16.33;;;10.37;;
9465;SDS011;4771;48.726;9.006;2022-12-11T10:24:55;14.83;;;10.27;;
9465;SDS011;4771;48.726;9.006;2022-12-11T10:27:24;16.43;;;11.43;;
9465;SDS011;4771;48.726;9.006;2022-12-11T10:29:58;17.03;;;10.97;;
9465;SDS011;4771;48.726;9.006;2022-12-11T10:32:30;18.47;;;11.27;;
9465;SDS011;4771;48.726;9.006;2022-12-11T10:35:09;17.33;;;10.70;;
9465;SDS011;4771;48.726;9.006;2022-12-11T10:37:44;16.30;;;10.53;;
9465;SDS011;4771;48.726;9.006;2022-12-11T10:40:11;18.50;;;11.27;;
9465;SDS011;4771;48.726;9.006;2022-12-11T10:42:38;14.47;;;10.70;;
9465;SDS011;4771;48.726;9.006;2022-12-11T10:45:05;14.20;;;9.93;;
9465;SDS011;4771;48.726;9.006;2022-12-11T10:47:34;16.60;;;10.90;;
9465;SDS011;4771;48.726;9.006;2022-12-11T10:50:01;17.27;;;10.57;;
9465;SDS011;4771;48.726;9.006;2022-12-11T10:52:31;18.10;;;10.73;;
9465;SDS011;4771;48.726;9.006;2022-12-11T10:55:03;18.10;;;10.70;;
9465;SDS011;4771;48.726;9.006;2022-12-11T10:57:33;14.60;;;10.53;;
9465;SDS011;4771;48.726;9.006;2022-12-11T11:00:01;15.47;;;10.23;;
9465;SDS011;4771;48.726;9.006;2022-12-11T11:02:30;15.63;;;11.82;;
9465;SDS011;4771;48.726;9.006;2022-12-11T11:05:10;18.73;;;10.43;;
9465;SDS011;4771;48.726;9.006;2022-12-11T11:07:39;14.70;;;10.33;;
9465;SDS011;4771;48.726;9.006;2022-12-11T11:10:15;15.67;;;10.03;;
9465;SDS011;4771;48.726;9.006;2022-12-11T11:12:43;16.27;;;9.60;;
9465;SDS011;4771;48.726;9.006;2022-12-11T11:15:12;13.67;;;9.20;;
9465;SDS011;4771;48.726;9.006;2022-12-11T11:17:41;14.73;;;9.63;;
9465;SDS011;4771;48.726;9.006;2022-12-11T11:20:13;14.03;;;8.90;;
9465;SDS011;4771;48.726;9.006;2022-12-11T11:22:43;12.50;;;8.50;;
9465;SDS011;4771;48.726;9.006;2022-12-11T11:25:16;13.50;;;8.80;;
9465;SDS011;4771;48.726;9.006;2022-12-11T11:27:46;12.20;;;8.53;;
9465;SDS011;4771;48.726;9.006;2022-12-11T11:30:17;11.37;;;8.37;;
9465;SDS011;4771;48.726;9.006;2022-12-11T11:32:46;13.57;;;8.87;;
9465;SDS011;4771;48.726;9.006;2022-12-11T11:35:19;14.00;;;9.80;;
9465;SDS011;4771;48.726;9.006;2022-12-11T11:37:53;13.93;;;9.03;;
9465;SDS011;4771;48.726;9.006;2022-12-11T11:40:26;12.13;;;8.90;;
9465;SDS011;4771;48.726;9.006;2022-12-11T11:42:57;13.27;;;9.87;;
9465;SDS011;4771;48.726;9.006;2022-12-11T11:45:32;15.83;;;9.90;;
9465;SDS011;4771;48.726;9.006;2022-12-11T11:48:06;13.30;;;8.80;;
9465;SDS011;4771;48.726;9.006;2022-12-11T11:50:46;11.63;;;8.57;;
9465;SDS011;4771;48.726;9.006;2022-12-11T11:53:16;12.73;;;9.43;;
9465;SDS011;4771;48.726;9.006;2022-12-11T11:55:50;13.03;;;8.90;;
9465;SDS011;4771;48.726;9.006;2022-12-11T11:58:24;13.53;;;9.07;;
9465;SDS011;4771;48.726;9.006;2022-12-11T12:00:58;13.43;;;9.13;;
9465;SDS011;4771;48.726;9.006;2022-12-11T12:03:25;13.20;;;9.30;;
9465;SDS011;4771;48.726;9.006;2022-12-11T12:05:56;14.50;;;9.33;;
9465;SDS011;4771;48.726;9.006;2022-12-11T12:08:32;15.13;;;9.70;;
9465;SDS011;4771;48.726;9.006;2022-12-11T12:11:09;13.17;;;8.90;;
9465;SDS011;4771;48.726;9.006;2022-12-11T12:13:43;13.33;;;8.37;;
9465;SDS011;4771;48.726;9.006;2022-12-11T12:16:21;15.13;;;8.67;;
9465;SDS011;4771;48.726;9.006;2022-12-11T12:19:00;14.10;;;9.43;;
9465;SDS011;4771;48.726;9.006;2022-12-11T12:21:37;12.90;;;8.93;;
9465;SDS011;4771;48.726;9.006;2022-12-11T12:24:11;12.07;;;8.50;;
9465;SDS011;4771;48.726;9.006;2022-12-11T12:26:48;11.43;;;8.53;;
9465;SDS011;4771;48.726;9.006;2022-12-11T12:29:22;12.40;;;7.87;;
9465;SDS011;4771;48.726;9.006;2022-12-11T12:31:59;11.77;;;7.80;;
9465;SDS011;4771;48.726;9.006;2022-12-11T12:34:36;11.33;;;7.80;;
9465;SDS011;4771;48.726;9.006;2022-12-11T12:37:19;11.03;;;7.67;;
9465;SDS011;4771;48.726;9.006;2022-12-11T12:40:00;11.77;;;8.27;;
9465;SDS011;4771;48.726;9.006;2022-12-11T12:42:40;13.20;;;7.80;;
9465;SDS011;4771;48.726;9.006;2022-12-11T12:45:16;8.03;;;6.33;;
9465;SDS011;4771;48.726;9.006;2022-12-11T12:47:52;11.47;;;7.63;;
9465;SDS011;4771;48.726;9.006;2022-12-11T12:50:20;9.73;;;6.27;;
9465;SDS011;4771;48.726;9.006;2022-12-11T12:52:51;10.33;;;6.10;;
9465;SDS011;4771;48.726;9.006;2022-12-11T12:55:21;9.97;;;6.13;;
9465;SDS011;4771;48.726;9.006;2022-12-11T12:57:50;7.90;;;4.70;;
9465;SDS011;4771;48.726;9.006;2022-12-11T13:00:26;7.87;;;4.47;;
9465;SDS011;4771;48.726;9.006;2022-12-11T13:02:56;7.57;;;5.00;;
9465;SDS011;4771;48.726;9.006;2022-12-11T13:05:25;9.87;;;5.70;;
9465;SDS011;4771;48.726;9.006;2022-12-11T13:07:55;8.87;;;6.30;;
9465;SDS011;4771;48.726;9.006;2022-12-11T13:10:25;9.00;;;6.30;;
9465;SDS011;4771;48.726;9.006;2022-12-11T13:12:55;9.13;;;6.40;;
9465;SDS011;4771;48.726;9.006;2022-12-11T13:15:25;8.97;;;6.40;;
9465;SDS011;4771;48.726;9.006;2022-12-11T13:18:27;7.97;;;5.50;;
9465;SDS011;4771;48.726;9.006;2022-12-11T13:20:57;9.87;;;7.27;;
9465;SDS011;4771;48.726;9.006;2022-12-11T13:23:27;9.63;;;6.80;;
9465;SDS011;4771;48.726;9.006;2022-12-11T13:25:55;10.03;;;6.83;;
9465;SDS011;4771;48.726;9.006;2022-12-11T13:28:31;10.03;;;6.27;;
9465;SDS011;4771;48.726;9.006;2022-12-11T13:31:23;7.97;;;5.57;;
9465;SDS011;4771;48.726;9.006;2022-12-11T13:34:02;8.50;;;5.40;;
9465;SDS011;4771;48.726;9.006;2022-12-11T13:36:39;8.90;;;6.50;;
9465;SDS011;4771;48.726;9.006;2022-12-11T13:39:15;8.57;;;6.77;;
9465;SDS011;4771;48.726;9.006;2022-12-11T13:41:46;8.17;;;5.80;;
9465;SDS011;4771;48.726;9.006;2022-12-11T13:44:17;8.77;;;6.30;;
9465;SDS011;4771;48.726;9.006;2022-12-11T13:46:48;10.20;;;6.60;;
9465;SDS011;4771;48.726;9.006;2022-12-11T13:49:19;10.33;;;7.50;;
9465;SDS011;4771;48.726;9.006;2022-12-11T13:51:52;10.67;;;7.70;;
9465;SDS011;4771;48.726;9.006;2022-12-11T13:54:22;11.70;;;7.10;;
9465;SDS011;4771;48.726;9.006;2022-12-11T13:56:53;11.63;;;7.60;;
9465;SDS011;4771;48.726;9.006;2022-12-11T13:59:23;13.30;;;9.43;;
9465;SDS011;4771;48.726;9.006;2022-12-11T14:01:53;10.80;;;7.23;;
9465;SDS011;4771;48.726;9.006;2022-12-11T14:04:22;10.90;;;7.37;;
9465;SDS011;4771;48.726;9.006;2022-12-11T14:06:52;9.70;;;7.10;;
9465;SDS011;4771;48.726;9.006;2022-12-11T14:09:20;11.87;;;8.13;;
9465;SDS011;4771;48.726;9.006;2022-12-11T14:11:51;11.00;;;7.90;;
9465;SDS011;4771;48.726;9.006;2022-12-11T14:14:21;12.50;;;8.43;;
9465;SDS011;4771;48.726;9.006;2022-12-11T14:16:51;11.63;;;8.57;;
9465;SDS011;4771;48.726;9.006;2022-12-11T14:19:18;13.20;;;8.67;;
9465;SDS011;4771;48.726;9.006;2022-12-11T14:21:54;13.40;;;8.93;;
9465;SDS011;4771;48.726;9.006;2022-12-11T14:24:25;12.67;;;8.20;;
9465;SDS011;4771;48.726;9.006;2022-12-11T14:26:54;14.97;;;8.90;;
9465;SDS011;4771;48.726;9.006;2022-12-11T14:29:22;13.17;;;8.87;;
9465;SDS011;4771;48.726;9.006;2022-12-11T14:31:51;12.63;;;8.23;;
9465;SDS011;4771;48.726;9.006;2022-12-11T14:34:20;11.97;;;8.33;;
9465;SDS011;4771;48.726;9.006;2022-12-11T14:36:49;12.27;;;8.57;;
9465;SDS011;4771;48.726;9.006;2022-12-11T14:39:17;12.67;;;8.67;;
9465;SDS011;4771;48.726;9.006;2022-12-11T14:41:51;13.10;;;8.60;;
9465;SDS011;4771;48.726;9.006;2022-12-11T14:44:23;12.00;;;9.10;;
9465;SDS011;4771;48.726;9.006;2022-12-11T14:46:53;10.87;;;7.43;;
9465;SDS011;4771;48.726;9.006;2022-12-11T14:49:23;14.10;;;8.57;;
9465;SDS011;4771;48.726;9.006;2022-12-11T14:51:57;13.40;;;8.47;;
9465;SDS011;4771;48.726;9.006;2022-12-11T14:54:26;11.60;;;8.00;;
9465;SDS011;4771;48.726;9.006;2022-12-11T14:56:58;13.27;;;9.07;;
9465;SDS011;4771;48.726;9.006;2022-12-11T14:59:30;13.97;;;9.53;;
9465;SDS011;4771;48.726;9.006;2022-12-11T15:02:03;14.10;;;9.50;;
9465;SDS011;4771;48.726;9.006;2022-12-11T15:05:01;15.03;;;10.10;;
9465;SDS011;4771;48.726;9.006;2022-12-11T15:07:38;15.00;;;10.03;;
9465;SDS011;4771;48.726;9.006;2022-12-11T15:10:19;19.50;;;13.23;;
9465;SDS011;4771;48.726;9.006;2022-12-11T15:12:51;19.33;;;12.67;;
9465;SDS011;4771;48.726;9.006;2022-12-11T15:15:18;17.93;;;12.07;;